createdAt,value
2022-12-31T00:02:22.757Z,88.5
2022-12-31T00:07:28.865Z,88
2022-12-31T00:12:35.081Z,88
2022-12-31T00:17:41.051Z,88
2022-12-31T00:22:47.241Z,88
2022-12-31T00:27:53.286Z,88.5
2022-12-31T00:32:59.328Z,88
2022-12-31T00:38:05.515Z,88.5
2022-12-31T00:43:11.521Z,88.5
2022-12-31T00:48:17.615Z,89
2022-12-31T00:53:22.754Z,89
2022-12-31T00:58:28.820Z,89.5
2022-12-31T01:03:34.918Z,90
2022-12-31T01:08:41.007Z,90
2022-12-31T01:13:47.124Z,89.5
2022-12-31T01:18:53.212Z,90
2022-12-31T01:23:59.301Z,90
2022-12-31T01:29:05.419Z,90
2022-12-31T01:34:11.503Z,90
2022-12-31T01:39:17.593Z,90
2022-12-31T01:44:23.743Z,90
2022-12-31T01:49:29.785Z,89.5
2022-12-31T01:54:35.873Z,90.5
2022-12-31T01:59:40.995Z,90.5
2022-12-31T02:04:47.087Z,91
2022-12-31T02:09:53.170Z,91
2022-12-31T02:14:59.331Z,91.5
2022-12-31T02:20:05.378Z,91
2022-12-31T02:25:11.468Z,91
2022-12-31T02:30:17.638Z,91.5
2022-12-31T02:35:23.652Z,91.5
2022-12-31T02:40:29.757Z,91
2022-12-31T02:45:35.857Z,91
2022-12-31T02:50:41.955Z,91.5
2022-12-31T02:55:48.087Z,91.5
2022-12-31T03:00:54.137Z,91.5
2022-12-31T03:05:59.258Z,91.5
2022-12-31T03:11:05.344Z,91.5
2022-12-31T03:16:11.468Z,90.5
2022-12-31T03:21:17.535Z,90.5
2022-12-31T03:26:23.639Z,90
2022-12-31T03:31:29.719Z,90
2022-12-31T03:36:35.882Z,90
2022-12-31T03:41:41.927Z,89.5
2022-12-31T03:46:48.019Z,89.5
2022-12-31T03:51:54.144Z,89.5
2022-12-31T03:57:00.209Z,91
2022-12-31T04:02:06.298Z,91
2022-12-31T04:07:12.395Z,91
2022-12-31T04:12:17.549Z,90.5
2022-12-31T04:17:23.613Z,89.5
2022-12-31T04:22:29.831Z,89
2022-12-31T04:27:35.831Z,88.5
2022-12-31T04:32:41.900Z,88.5
2022-12-31T04:37:47.988Z,88.5
2022-12-31T04:42:54.175Z,88
2022-12-31T04:48:00.199Z,88
2022-12-31T04:53:06.285Z,88
2022-12-31T04:58:12.396Z,88.5
2022-12-31T05:03:18.493Z,88.5
2022-12-31T05:08:24.585Z,88.5
2022-12-31T05:13:30.676Z,89
2022-12-31T05:18:35.786Z,89
2022-12-31T05:23:41.894Z,89
2022-12-31T05:28:47.979Z,88
2022-12-31T05:33:54.078Z,87.5
2022-12-31T05:39:00.152Z,87.5
2022-12-31T05:44:06.254Z,86.5
2022-12-31T05:49:12.354Z,86
2022-12-31T05:54:18.447Z,86
2022-12-31T05:59:24.559Z,86
2022-12-31T06:04:30.627Z,85.5
2022-12-31T06:09:36.734Z,85
2022-12-31T06:14:42.837Z,85
2022-12-31T06:19:48.928Z,85.5
2022-12-31T06:24:54.096Z,85.5
2022-12-31T06:30:00.151Z,85
2022-12-31T06:35:06.233Z,85
2022-12-31T06:40:12.314Z,85
2022-12-31T06:45:18.404Z,85
2022-12-31T06:50:24.505Z,85
2022-12-31T06:55:30.595Z,85
2022-12-31T07:00:36.783Z,85
2022-12-31T07:05:42.778Z,84.5
2022-12-31T07:10:48.886Z,85
2022-12-31T07:15:55.008Z,85
2022-12-31T07:21:01.077Z,85.5
2022-12-31T07:26:07.207Z,84.5
2022-12-31T07:31:12.290Z,84
2022-12-31T07:36:18.379Z,84.5
2022-12-31T07:41:24.509Z,84.5
2022-12-31T07:46:30.608Z,84.5
2022-12-31T07:51:36.691Z,84
2022-12-31T07:56:42.833Z,83.5
2022-12-31T08:01:48.886Z,83
2022-12-31T08:06:55.013Z,82.5
2022-12-31T08:12:01.168Z,82.5
2022-12-31T08:17:07.183Z,82
2022-12-31T08:22:13.232Z,81.5
2022-12-31T08:27:19.400Z,81
2022-12-31T08:32:25.454Z,80.5
2022-12-31T08:37:30.561Z,80.5
2022-12-31T08:42:36.720Z,79.5
2022-12-31T08:47:42.728Z,79
2022-12-31T08:52:48.813Z,79
2022-12-31T08:57:59.587Z,79.5
2022-12-31T09:03:01.047Z,80
2022-12-31T09:08:07.125Z,80
2022-12-31T09:13:13.201Z,79.5
2022-12-31T09:18:19.276Z,79.5
2022-12-31T09:23:25.387Z,78.5
2022-12-31T09:28:31.460Z,78
2022-12-31T09:33:37.562Z,77.5
2022-12-31T09:38:43.655Z,77.5
2022-12-31T09:43:48.750Z,77.5
2022-12-31T09:48:54.855Z,77
2022-12-31T09:54:00.938Z,77
2022-12-31T09:59:07.035Z,76.5
2022-12-31T10:04:13.121Z,76.5
2022-12-31T10:09:19.235Z,76.5
2022-12-31T10:14:24.344Z,76.5
2022-12-31T10:19:29.475Z,76
2022-12-31T10:24:35.565Z,75
2022-12-31T10:29:41.636Z,74.5
2022-12-31T10:34:47.785Z,73
2022-12-31T10:39:53.897Z,73
2022-12-31T10:44:59.932Z,74
2022-12-31T10:50:06.021Z,74
2022-12-31T10:55:12.160Z,74.5
2022-12-31T11:00:18.230Z,74.5
2022-12-31T11:05:24.314Z,75
2022-12-31T11:10:30.417Z,75.5
2022-12-31T11:15:36.498Z,75.5
2022-12-31T11:20:42.588Z,75.5
2022-12-31T11:25:48.793Z,75
2022-12-31T11:30:53.816Z,75
2022-12-31T11:35:59.896Z,74.5
2022-12-31T11:41:05.984Z,73.5
2022-12-31T11:46:12.065Z,73
2022-12-31T11:51:18.190Z,72
2022-12-31T11:56:24.316Z,71.5
2022-12-31T12:01:30.356Z,72.5
2022-12-31T12:06:36.554Z,73
2022-12-31T12:11:42.548Z,72.5
2022-12-31T12:16:48.634Z,72
2022-12-31T12:21:54.813Z,71.5
2022-12-31T12:27:00.905Z,71.5
2022-12-31T12:32:06.926Z,70
2022-12-31T12:37:12.022Z,70
2022-12-31T12:42:18.160Z,70
2022-12-31T12:47:24.290Z,70.5
2022-12-31T12:52:30.446Z,70.5
2022-12-31T12:57:36.397Z,70.5
2022-12-31T13:02:42.492Z,70.5
2022-12-31T13:07:48.607Z,70.5
2022-12-31T13:12:54.700Z,71
2022-12-31T13:18:00.864Z,72
2022-12-31T13:23:06.908Z,71.5
2022-12-31T13:28:13.063Z,71.5
2022-12-31T13:33:19.092Z,72.5
2022-12-31T13:38:25.179Z,73
2022-12-31T13:43:30.358Z,73
2022-12-31T13:48:36.378Z,73
2022-12-31T13:53:42.513Z,73
2022-12-31T13:58:48.663Z,73
2022-12-31T14:03:54.645Z,73.5
2022-12-31T14:09:00.740Z,73
2022-12-31T14:14:06.862Z,73
2022-12-31T14:19:12.935Z,74
2022-12-31T14:24:19.019Z,76
2022-12-31T14:29:25.116Z,77.5
2022-12-31T14:34:31.256Z,77
2022-12-31T14:39:37.344Z,77
2022-12-31T14:44:43.408Z,77
2022-12-31T14:49:48.518Z,76.5
2022-12-31T14:54:54.627Z,77
2022-12-31T15:00:00.732Z,77.5
2022-12-31T15:05:06.794Z,78
2022-12-31T15:10:12.868Z,78.5
2022-12-31T15:15:18.974Z,78.5
2022-12-31T15:20:25.128Z,78.5
2022-12-31T15:25:31.150Z,78.5
2022-12-31T15:30:37.246Z,78.5
2022-12-31T15:35:43.336Z,78.5
2022-12-31T15:40:49.424Z,79
2022-12-31T15:45:55.525Z,79
2022-12-31T15:51:01.622Z,79
2022-12-31T15:56:06.774Z,78.5
2022-12-31T16:01:12.827Z,78.5
2022-12-31T16:06:18.956Z,78
2022-12-31T16:11:25.004Z,78.5
2022-12-31T16:16:31.171Z,78.5
2022-12-31T16:21:37.230Z,77.5
2022-12-31T16:26:43.281Z,78
2022-12-31T16:31:49.396Z,78
2022-12-31T16:36:55.650Z,78.5
2022-12-31T16:42:01.638Z,78.5
2022-12-31T16:47:07.677Z,78.5
2022-12-31T16:52:13.751Z,78.5
2022-12-31T16:57:19.850Z,79
2022-12-31T17:02:24.955Z,78.5
2022-12-31T17:07:31.093Z,78.5
2022-12-31T17:12:37.163Z,79
2022-12-31T17:17:43.296Z,79
2022-12-31T17:22:49.338Z,79
2022-12-31T17:27:55.466Z,79
2022-12-31T17:33:01.577Z,78.5
2022-12-31T17:38:07.630Z,79
2022-12-31T17:43:13.802Z,78
2022-12-31T17:48:19.912Z,78
2022-12-31T17:53:25.969Z,78.5
2022-12-31T17:58:32.016Z,78
2022-12-31T18:03:38.097Z,78
2022-12-31T18:08:43.183Z,79
2022-12-31T18:13:49.304Z,78.5
2022-12-31T18:18:55.389Z,78.5
2022-12-31T18:34:13.662Z,77.5
2022-12-31T18:39:19.779Z,76.5
2022-12-31T18:44:25.891Z,76
2022-12-31T18:54:38.104Z,76.5
2022-12-31T18:59:44.222Z,76.5
2022-12-31T19:04:50.222Z,76.5
2022-12-31T19:09:56.321Z,75
2022-12-31T19:15:01.456Z,74.5
2022-12-31T19:20:07.579Z,74.5
2022-12-31T19:25:13.645Z,74.5
2022-12-31T19:30:19.730Z,74.5
2022-12-31T19:35:25.828Z,74
2022-12-31T19:40:31.964Z,73.5
2022-12-31T19:45:38.000Z,74
2022-12-31T19:50:44.094Z,73.5
2022-12-31T19:55:50.203Z,73.5
2022-12-31T20:00:56.285Z,73
2022-12-31T20:06:02.407Z,73.5
2022-12-31T20:11:08.559Z,73.5
2022-12-31T20:16:14.603Z,73.5
2022-12-31T20:21:19.735Z,73
2022-12-31T20:26:27.357Z,73.5
2022-12-31T20:31:31.924Z,73.5
2022-12-31T20:36:38.007Z,73.5
2022-12-31T20:41:44.068Z,73.5
2022-12-31T20:46:50.217Z,74
2022-12-31T20:51:56.239Z,73.5
2022-12-31T20:57:02.447Z,73.5
2022-12-31T21:02:08.490Z,73.5
2022-12-31T21:07:14.529Z,73.5
2022-12-31T21:12:20.664Z,73
2022-12-31T21:17:26.695Z,72.5
2022-12-31T21:22:32.860Z,72.5
2022-12-31T21:28:00.563Z,73
2022-12-31T21:32:44.001Z,72.5
2022-12-31T21:37:50.099Z,71.5
2022-12-31T21:42:56.182Z,71
2022-12-31T21:48:02.298Z,70.5
2022-12-31T21:53:08.387Z,70
2022-12-31T21:58:14.470Z,69.5
2022-12-31T22:03:20.567Z,69.5
2022-12-31T22:13:32.859Z,69
2022-12-31T22:18:38.934Z,68.5
2022-12-31T22:23:44.960Z,68
2022-12-31T22:28:51.049Z,67.5
2022-12-31T22:33:56.212Z,68
2022-12-31T22:39:02.287Z,67.5
2022-12-31T22:44:08.339Z,67.5
2022-12-31T22:49:14.428Z,67
2022-12-31T22:54:20.615Z,67
2022-12-31T22:59:26.623Z,67
2022-12-31T23:04:32.726Z,67
2022-12-31T23:09:38.803Z,67
2022-12-31T23:14:44.953Z,66
2022-12-31T23:19:51.005Z,66
2022-12-31T23:24:57.093Z,65.5
2022-12-31T23:30:03.243Z,65.5
2022-12-31T23:35:09.293Z,65.5
2022-12-31T23:40:14.380Z,65
2022-12-31T23:45:20.619Z,65
2022-12-31T23:50:26.659Z,65.5
2022-12-31T23:55:36.907Z,66
